METAR AND TAF INFORMATION
METAR FOR EGSS
ADDS - METARS form results

(0948 UTC 22 May 2019)
Data provider http://aviationweather.gov/metar/data/
 
METAR text: EGSS 220920Z AUTO VRB02KT 9999 FEW049 15/06 Q1020
Conditions at: EGSS (STANSTED AIRPORT, GB) observed 0920 UTC 22 May 2019
Temperature: 15.0°C (59°F)
Dewpoint: 6.0°C (43°F) [RH = 55%]
Pressure (altimeter): 30.12 inches Hg (1020.0 mb)
Winds: variable direction winds at 2 MPH (2 knots; 1.0 m/s)
Visibility: 6 or more miles (10+ km)
Ceiling: at least 12,000 feet AGL
Clouds: few clouds at 4900 feet AGL
Weather: no significant weather observed at this time

METAR text: EGSS 220850Z AUTO VRB02KT 9999 NCD 14/06 Q1020
Conditions at: EGSS (STANSTED AIRPORT, GB) observed 0850 UTC 22 May 2019
Temperature: 14.0°C (57°F)
Dewpoint: 6.0°C (43°F) [RH = 58%]
Pressure (altimeter): 30.12 inches Hg (1020.0 mb)
Winds: variable direction winds at 2 MPH (2 knots; 1.0 m/s)
Visibility: 6 or more miles (10+ km)
Ceiling: at least 12,000 feet AGL
Clouds: sky clear below 12,000 feet AGL
Weather: no significant weather observed at this time

Forecast for: EGSS (STANSTED AIRPORT, GB)
Text: TAF EGSS 220456Z 2206/2312 27004KT 9999 FEW045
Forecast period: 0600 UTC 22 May 2019 to 1200 UTC 23 May 2019
Forecast type: FROM: standard forecast or significant change
Winds: from the W (270 degrees) at 5 MPH (4 knots; 2.1 m/s)
Visibility: 6 or more miles 10+ km)
Ceiling: at least 12,000 feet AGL
Clouds: few clouds at 4500 feet AGL
Weather: no significant weather forecast for this period

 AIRPORT MAP

 RUNWAY INFORMATION
Runway 04 Runway length 10003 ft Runway width 151 ft
Runway elevation 324 ft Runway displaced threshold 0 ft Runway heading 44
Runway 22 Runway length 10003 ft Runway width 151 ft
Runway elevation 348 ft Runway displaced threshold 0 ft Runway heading 224

 AIRPORT FREQUENCIES
Type APP Name Essex Rada Frequency 120.625 MHZ
Type ATIS Name ATIS Frequency 127.175 MHZ
Type CLD Name CLNC DEL Frequency 121.95 MHZ
Type DIR Name DIRECTOR Frequency 136.2 MHZ
Type GND Name GND Frequency 121.725 MHZ
Type RDR Name Director Frequency 136.2 MHZ
Type TWR Name TWR Frequency 123.8 MHZ

 AIRPORT NEAR NAVIGATION AIDS
Type VOR-DME Name Barkway Frequency 116250 KHZ
Type NDB Name Stansted Frequency 429 KHZ



Powered by Virtual Airlines Manager [v2.6.2]

Impressum | Datenschutz